Time;durP1;ratioP1;P1;durP2;ratioP2;P2;SDS_P1;SDS_P2;PMS_P1;PMS_P2;Temp;Humidity;BMP_temperature;BMP_pressure;BME280_temperature;BME280_humidity;BME280_pressure;Samples;Min_cycle;Max_cycle;Signal;HPM_P1;HPM_P2
2022/11/16 00:01:02;;;;;;;;;;;12.00;99.90;;;;;;5078420;28;19925;-79
2022/11/16 00:03:29;;;;;;;;;;;12.00;99.90;;;;;;5069926;28;20336;-78
2022/11/16 00:05:56;;;;;;;;;;;12.00;99.90;;;;;;5063600;28;19933;-77
2022/11/16 00:08:23;;;;;;;;;;;12.00;99.90;;;;;;5065178;28;19932;-78
2022/11/16 00:10:50;;;;;;;;;;;12.00;99.90;;;;;;5064227;28;19940;-77
2022/11/16 00:13:17;;;;;;;;;;;12.00;99.90;;;;;;5069142;28;20027;-79
2022/11/16 00:15:44;;;;;;;;;;;12.00;99.90;;;;;;5069631;28;20302;-79
2022/11/16 00:18:12;;;;;;;;;;;12.00;99.90;;;;;;5068842;28;19936;-78
2022/11/16 00:20:39;;;;;;;;;;;12.00;99.90;;;;;;5069646;28;19929;-79
2022/11/16 00:23:06;;;;;;;;;;;12.00;99.90;;;;;;5068389;28;19932;-79
2022/11/16 00:25:33;;;;;;;;;;;12.00;99.90;;;;;;5069544;28;20038;-79
2022/11/16 00:28:00;;;;;;;;;;;12.00;99.90;;;;;;5066792;28;19931;-79
2022/11/16 00:30:26;;;;;;;;;;;12.00;99.90;;;;;;5063256;28;20683;-80
2022/11/16 00:32:53;;;;;;;;;;;12.00;99.90;;;;;;5064342;28;19924;-79
2022/11/16 00:35:21;;;;;;;;;;;12.00;99.90;;;;;;5079821;28;20459;-79
2022/11/16 00:37:48;;;;;;;;;;;12.00;99.90;;;;;;5065229;28;19933;-79
2022/11/16 00:40:15;;;;;;;;;;;12.00;99.90;;;;;;5065426;28;19928;-80
2022/11/16 00:42:43;;;;;;;;;;;12.00;99.90;;;;;;5065088;28;20462;-79
2022/11/16 00:45:10;;;;;;;;;;;12.00;99.90;;;;;;5066427;28;19964;-79
2022/11/16 00:47:45;;;;;;;;;;;12.00;99.90;;;;;;5087623;27;19920;-77
2022/11/16 00:50:12;;;;;;;;;;;12.00;99.90;;;;;;5087525;28;19932;-78
2022/11/16 00:52:39;;;;;;;;;;;12.00;99.90;;;;;;5086611;28;20016;-79
2022/11/16 00:55:06;;;;;;;;;;;12.00;99.90;;;;;;5590697;22;19932;-79
2022/11/16 00:57:35;;;;;;;;;;;12.00;99.90;;;;;;5114535;28;19942;-79
2022/11/16 01:00:01;;;;;;;;;;;12.00;99.90;;;;;;5113048;27;19939;-79
2022/11/16 01:02:29;;;;;;;;;;;12.00;99.90;;;;;;5112879;27;20039;-79
2022/11/16 01:04:57;;;;;;;;;;;12.00;99.90;;;;;;5112087;28;19932;-78
2022/11/16 01:07:24;;;;;;;;;;;12.00;99.90;;;;;;5103134;28;19932;-78
2022/11/16 01:09:51;;;;;;;;;;;12.00;99.90;;;;;;5103910;22;19932;-78
2022/11/16 01:12:17;;;;;;;;;;;12.00;99.90;;;;;;5094364;28;19936;-79
2022/11/16 01:14:46;;;;;;;;;;;11.90;99.90;;;;;;5094092;28;19924;-79
2022/11/16 01:17:13;;;;;;;;;;;11.90;99.90;;;;;;5078542;28;20248;-78
2022/11/16 01:19:41;;;;;;;;;;;12.00;99.90;;;;;;5071208;28;19932;-79
2022/11/16 01:22:10;;;;;;;;;;;12.00;99.90;;;;;;5085293;28;19960;-79
2022/11/16 01:24:37;;;;;;;;;;;12.00;99.90;;;;;;5065294;28;20450;-79
2022/11/16 01:27:04;;;;;;;;;;;11.00;99.90;;;;;;5066557;28;19978;-79
2022/11/16 01:29:34;;;;;;;;;;;12.00;99.90;;;;;;5062212;28;19929;-80
2022/11/16 01:32:02;;;;;;;;;;;12.00;99.90;;;;;;5067701;28;20328;-80
2022/11/16 01:34:29;;;;;;;;;;;11.90;99.90;;;;;;5086929;28;20331;-78
2022/11/16 01:37:03;;;;;;;;;;;11.90;99.90;;;;;;5078619;28;19933;-79
2022/11/16 01:39:35;;;;;;;;;;;11.90;99.90;;;;;;5068083;28;19933;-78
2022/11/16 01:42:03;;;;;;;;;;;11.90;99.90;;;;;;5063370;28;20060;-79
2022/11/16 01:44:49;;;;;;;;;;;11.90;99.90;;;;;;5066994;28;20054;-80
2022/11/16 01:47:18;;;;;;;;;;;11.90;99.90;;;;;;5069152;28;20151;-79
2022/11/16 01:49:47;;;;;;;;;;;11.90;99.90;;;;;;5067163;28;19924;-79
2022/11/16 01:52:19;;;;;;;;;;;11.90;99.90;;;;;;5067730;28;19939;-79
2022/11/16 01:54:49;;;;;;;;;;;11.80;99.90;;;;;;5071914;28;19943;-79
2022/11/16 01:57:20;;;;;;;;;;;11.80;99.90;;;;;;5085953;28;19967;-79
2022/11/16 01:59:56;;;;;;;;;;;11.80;99.90;;;;;;5066911;28;20427;-78
2022/11/16 02:02:25;;;;;;;;;;;11.80;99.90;;;;;;5073698;28;19936;-79
2022/11/16 02:04:53;;;;;;;;;;;11.80;99.90;;;;;;5049873;28;20538;-79
2022/11/16 02:09:52;;;;;;;;;;;11.80;99.90;;;;;;5056808;28;19939;-79
2022/11/16 02:10:39;;;;;;;;;;;11.90;99.90;;;;;;5066888;28;19929;-79
2022/11/16 02:13:25;;;;;;;;;;;11.80;99.90;;;;;;5055719;28;19935;-79
2022/11/16 02:15:55;;;;;;;;;;;11.90;99.90;;;;;;5058733;28;20015;-79
2022/11/16 02:18:31;;;;;;;;;;;11.90;99.90;;;;;;5066507;28;19932;-79
2022/11/16 02:21:16;;;;;;;;;;;11.90;99.90;;;;;;5054202;28;19928;-79
2022/11/16 02:23:50;;;;;;;;;;;11.90;99.90;;;;;;5057913;28;19992;-79
2022/11/16 02:26:25;;;;;;;;;;;11.80;99.90;;;;;;5073484;28;20411;-79
2022/11/16 02:29:02;;;;;;;;;;;11.80;99.90;;;;;;5052669;28;19928;-79
2022/11/16 02:31:32;;;;;;;;;;;11.80;99.90;;;;;;5057941;28;19952;-79
2022/11/16 02:34:00;;;;;;;;;;;11.80;99.90;;;;;;5075452;28;19929;-78
2022/11/16 02:36:27;;;;;;;;;;;11.80;99.90;;;;;;5061539;28;19994;-80
2022/11/16 02:38:57;;;;;;;;;;;11.80;99.90;;;;;;5050641;28;19983;-79
2022/11/16 02:41:26;;;;;;;;;;;11.80;99.90;;;;;;5076634;28;20549;-77
2022/11/16 02:43:56;;;;;;;;;;;11.80;99.90;;;;;;5056949;28;19940;-78
2022/11/16 02:46:28;;;;;;;;;;;11.80;99.90;;;;;;5054399;28;19928;-78
2022/11/16 02:48:57;;;;;;;;;;;11.80;99.90;;;;;;5055727;28;19967;-78
2022/11/16 02:51:25;;;;;;;;;;;11.80;99.90;;;;;;5057420;28;20058;-78
2022/11/16 02:53:57;;;;;;;;;;;11.80;99.90;;;;;;5067550;28;19937;-79
2022/11/16 02:56:25;;;;;;;;;;;11.70;99.90;;;;;;5071787;28;19995;-77
2022/11/16 02:58:52;;;;;;;;;;;11.70;99.90;;;;;;5061003;28;19983;-78
2022/11/16 03:01:22;;;;;;;;;;;11.80;99.90;;;;;;5053726;28;19951;-80
2022/11/16 03:03:53;;;;;;;;;;;11.80;99.90;;;;;;5061401;28;19978;-80
2022/11/16 03:06:22;;;;;;;;;;;11.80;99.90;;;;;;5060116;28;20415;-79
2022/11/16 03:08:54;;;;;;;;;;;11.80;99.90;;;;;;5055311;28;20323;-80
2022/11/16 03:14:10;;;;;;;;;;;11.70;99.90;;;;;;5058584;28;19928;-80
2022/11/16 03:16:39;;;;;;;;;;;11.70;99.90;;;;;;5055486;28;19986;-80
2022/11/16 03:19:09;;;;;;;;;;;11.80;99.90;;;;;;5055965;28;19955;-79
2022/11/16 03:21:39;;;;;;;;;;;11.80;99.90;;;;;;5058494;28;19940;-80
2022/11/16 03:24:07;;;;;;;;;;;11.80;99.90;;;;;;5071344;28;19925;-78
2022/11/16 03:26:40;;;;;;;;;;;11.80;99.90;;;;;;5060439;28;19932;-79
2022/11/16 03:29:12;;;;;;;;;;;11.80;99.90;;;;;;5052693;28;19975;-79
2022/11/16 03:31:41;;;;;;;;;;;11.80;99.90;;;;;;5053764;28;19932;-79
2022/11/16 03:34:15;;;;;;;;;;;11.80;99.90;;;;;;5045061;28;20039;-79
2022/11/16 03:36:43;;;;;;;;;;;11.80;99.90;;;;;;5065203;28;19933;-79
2022/11/16 03:39:12;;;;;;;;;;;11.70;99.90;;;;;;5065562;28;19977;-79
2022/11/16 03:41:41;;;;;;;;;;;11.80;99.90;;;;;;5067986;28;19975;-78
2022/11/16 03:44:10;;;;;;;;;;;11.80;99.90;;;;;;5052516;28;19976;-78
2022/11/16 03:46:39;;;;;;;;;;;11.80;99.90;;;;;;5051739;28;19936;-79
2022/11/16 03:49:06;;;;;;;;;;;11.80;99.90;;;;;;5069467;28;20008;-79
2022/11/16 03:51:37;;;;;;;;;;;11.80;99.90;;;;;;5062735;28;19939;-79
2022/11/16 03:54:05;;;;;;;;;;;11.80;99.90;;;;;;5070090;28;19933;-79
2022/11/16 03:56:33;;;;;;;;;;;11.80;99.90;;;;;;5065712;28;19944;-80
2022/11/16 03:59:00;;;;;;;;;;;11.80;99.90;;;;;;5053060;28;20009;-78
2022/11/16 04:01:29;;;;;;;;;;;11.80;99.90;;;;;;5053125;28;19970;-78
2022/11/16 04:03:56;;;;;;;;;;;11.80;99.90;;;;;;5052524;28;19932;-78
2022/11/16 04:25:46;;;;;;;;;;;11.80;99.90;;;;;;5068387;28;19929;-79
2022/11/16 04:28:18;;;;;;;;;;;11.80;99.90;;;;;;5067369;28;20361;-79
2022/11/16 04:39:08;;;;;;;;;;;11.80;99.90;;;;;;5044314;28;19928;-78
2022/11/16 04:44:22;;;;;;;;;;;11.80;99.90;;;;;;5048505;28;19932;-78
2022/11/16 04:47:06;;;;;;;;;;;11.80;99.90;;;;;;5055779;28;21286;-78
2022/11/16 04:49:34;;;;;;;;;;;11.80;99.90;;;;;;5071342;28;19936;-78
2022/11/16 04:52:01;;;;;;;;;;;11.80;99.90;;;;;;5050945;28;19933;-78
2022/11/16 04:54:30;;;;;;;;;;;11.80;99.90;;;;;;5051109;28;20408;-78
2022/11/16 04:56:59;;;;;;;;;;;11.80;99.90;;;;;;5044502;28;20012;-81
2022/11/16 04:59:26;;;;;;;;;;;11.80;99.90;;;;;;5051887;28;19925;-79
2022/11/16 05:02:10;;;;;;;;;;;11.30;99.90;;;;;;5048728;28;19925;-79
2022/11/16 05:04:50;;;;;;;;;;;11.80;99.90;;;;;;5050094;28;20023;-80
2022/11/16 05:07:18;;;;;;;;;;;11.90;99.90;;;;;;5051353;28;19925;-81
2022/11/16 05:09:47;;;;;;;;;;;11.90;99.90;;;;;;5053809;28;20373;-80
2022/11/16 05:12:16;;;;;;;;;;;11.90;99.90;;;;;;5054121;28;19924;-80
2022/11/16 05:14:47;;;;;;;;;;;11.90;99.90;;;;;;5073198;28;19928;-81
2022/11/16 05:17:17;;;;;;;;;;;12.00;99.90;;;;;;5062597;28;20434;-83
2022/11/16 05:22:40;;;;;;;;;;;11.90;99.90;;;;;;5073071;28;20023;-80
2022/11/16 05:25:08;;;;;;;;;;;11.90;99.90;;;;;;5059293;28;19929;-81
2022/11/16 05:27:36;;;;;;;;;;;11.90;99.90;;;;;;5051849;28;19929;-80
2022/11/16 05:30:06;;;;;;;;;;;11.90;99.90;;;;;;5056398;28;19947;-82
2022/11/16 05:32:37;;;;;;;;;;;11.90;99.90;;;;;;5052741;28;19959;-82
2022/11/16 05:35:08;;;;;;;;;;;11.90;99.90;;;;;;5062541;28;19924;-80
2022/11/16 05:37:36;;;;;;;;;;;11.90;99.90;;;;;;5056369;28;19976;-80
2022/11/16 05:40:03;;;;;;;;;;;11.90;99.90;;;;;;5057440;28;19925;-81
2022/11/16 05:42:46;;;;;;;;;;;11.90;99.90;;;;;;5060141;28;19951;-81
2022/11/16 05:45:13;;;;;;;;;;;11.90;99.90;;;;;;5051109;28;20337;-81
2022/11/16 05:47:44;;;;;;;;;;;11.90;99.90;;;;;;5043804;28;20019;-81
2022/11/16 05:50:11;;;;;;;;;;;11.90;99.90;;;;;;5046069;28;20379;-81
2022/11/16 05:52:46;;;;;;;;;;;11.90;99.90;;;;;;5049298;28;20354;-81
2022/11/16 05:55:13;;;;;;;;;;;11.90;99.90;;;;;;5042145;28;20006;-80
2022/11/16 05:57:43;;;;;;;;;;;11.90;99.90;;;;;;5032887;28;20327;-81
2022/11/16 06:00:13;;;;;;;;;;;11.90;99.90;;;;;;5052830;28;20419;-81
2022/11/16 06:02:46;;;;;;;;;;;11.90;99.90;;;;;;5053694;28;20035;-83
2022/11/16 06:05:22;;;;;;;;;;;11.90;99.90;;;;;;5045604;28;19970;-77
2022/11/16 06:07:50;;;;;;;;;;;11.90;99.90;;;;;;5043750;28;20003;-75
2022/11/16 06:10:17;;;;;;;;;;;11.90;99.90;;;;;;5041289;28;19925;-75
2022/11/16 06:12:52;;;;;;;;;;;11.80;99.90;;;;;;5046816;28;19990;-77
2022/11/16 06:15:22;;;;;;;;;;;11.80;99.90;;;;;;5050004;28;20407;-76
2022/11/16 06:17:50;;;;;;;;;;;11.80;99.90;;;;;;5064289;28;20379;-75
2022/11/16 06:20:18;;;;;;;;;;;11.80;99.90;;;;;;5040063;28;19936;-77
2022/11/16 06:22:45;;;;;;;;;;;11.80;99.90;;;;;;5044932;28;19951;-77
2022/11/16 06:25:13;;;;;;;;;;;11.70;99.90;;;;;;5049445;28;19929;-75
2022/11/16 06:27:43;;;;;;;;;;;11.50;99.90;;;;;;5062902;28;19925;-77
2022/11/16 06:30:13;;;;;;;;;;;11.40;99.90;;;;;;5034266;28;19931;-78
2022/11/16 06:32:41;;;;;;;;;;;11.40;99.90;;;;;;5035025;28;19932;-78
2022/11/16 06:35:09;;;;;;;;;;;11.40;99.90;;;;;;5043211;28;20004;-79
2022/11/16 06:37:37;;;;;;;;;;;11.40;99.90;;;;;;5040693;28;20328;-80
2022/11/16 06:40:05;;;;;;;;;;;11.30;99.90;;;;;;5042906;28;20360;-79
2022/11/16 06:42:36;;;;;;;;;;;11.20;99.90;;;;;;5049762;28;19925;-80
2022/11/16 06:45:03;;;;;;;;;;;11.10;99.90;;;;;;5060930;28;20024;-79
2022/11/16 06:47:36;;;;;;;;;;;11.10;99.90;;;;;;5044701;28;19932;-78
2022/11/16 06:50:05;;;;;;;;;;;11.00;99.90;;;;;;5063587;28;19948;-78
2022/11/16 06:52:33;;;;;;;;;;;11.00;99.90;;;;;;5038245;28;19929;-78
2022/11/16 06:55:00;;;;;;;;;;;9.80;99.90;;;;;;5062576;28;19929;-79
2022/11/16 06:57:34;;;;;;;;;;;11.10;99.90;;;;;;5040985;28;19993;-78
2022/11/16 07:00:01;;;;;;;;;;;11.20;99.90;;;;;;5044524;28;20410;-79
2022/11/16 07:02:28;;;;;;;;;;;11.20;99.90;;;;;;5048891;28;20018;-79
2022/11/16 07:04:56;;;;;;;;;;;11.80;99.90;;;;;;5047530;28;19929;-80
2022/11/16 07:07:24;;;;;;;;;;;11.40;99.90;;;;;;5071154;28;19935;-80
2022/11/16 07:09:54;;;;;;;;;;;14.50;99.90;;;;;;5054482;28;20260;-79
2022/11/16 07:12:22;;;;;;;;;;;11.40;99.90;;;;;;5040559;28;20364;-78
2022/11/16 07:14:49;;;;;;;;;;;11.50;99.90;;;;;;5044995;28;19948;-79
2022/11/16 07:17:18;;;;;;;;;;;11.50;99.90;;;;;;5066612;28;20007;-80
2022/11/16 07:19:45;;;;;;;;;;;11.60;99.90;;;;;;5069500;28;19925;-80
2022/11/16 07:22:12;;;;;;;;;;;11.60;99.90;;;;;;5043030;28;19975;-80
2022/11/16 07:24:41;;;;;;;;;;;11.70;99.90;;;;;;5049764;28;19975;-80
2022/11/16 07:27:10;;;;;;;;;;;11.70;99.90;;;;;;5052129;28;19960;-80
2022/11/16 07:29:41;;;;;;;;;;;11.70;99.90;;;;;;5044999;28;19979;-80
2022/11/16 07:32:38;;;;;;;;;;;11.70;99.90;;;;;;5026070;28;19930;-80
2022/11/16 07:35:14;;;;;;;;;;;11.70;99.90;;;;;;5056693;28;19939;-81
2022/11/16 07:37:41;;;;;;;;;;;11.80;99.90;;;;;;5054377;28;19913;-81
2022/11/16 07:40:10;;;;;;;;;;;12.00;99.90;;;;;;5051605;28;19925;-81
2022/11/16 07:42:38;;;;;;;;;;;12.20;99.90;;;;;;5062784;28;20016;-81
2022/11/16 07:45:20;;;;;;;;;;;12.20;99.90;;;;;;5055936;28;19925;-81
2022/11/16 07:47:58;;;;;;;;;;;12.20;99.90;;;;;;5058912;28;19927;-81
2022/11/16 07:50:44;;;;;;;;;;;12.20;99.90;;;;;;5048622;28;20020;-80
2022/11/16 07:53:11;;;;;;;;;;;12.20;99.90;;;;;;5042569;28;19993;-80
2022/11/16 07:55:40;;;;;;;;;;;12.20;99.90;;;;;;5049620;28;19929;-81
2022/11/16 07:58:09;;;;;;;;;;;12.20;99.90;;;;;;5054973;28;19932;-81
2022/11/16 08:00:37;;;;;;;;;;;12.20;99.90;;;;;;5072565;28;19928;-79
2022/11/16 08:03:13;;;;;;;;;;;12.10;99.90;;;;;;5068333;28;19935;-81
2022/11/16 08:05:43;;;;;;;;;;;12.40;99.90;;;;;;5045495;28;20055;-80
2022/11/16 08:08:10;;;;;;;;;;;12.40;99.90;;;;;;5047671;28;20293;-79
2022/11/16 08:10:37;;;;;;;;;;;12.50;99.90;;;;;;5068265;28;19995;-79
2022/11/16 08:13:06;;;;;;;;;;;12.60;99.90;;;;;;5050388;28;19971;-81
2022/11/16 08:15:34;;;;;;;;;;;12.80;99.90;;;;;;5049672;28;19936;-80
2022/11/16 08:18:04;;;;;;;;;;;12.80;99.90;;;;;;5055706;28;19935;-81
2022/11/16 08:23:33;;;;;;;;;;;12.90;99.90;;;;;;5049452;28;19932;-82
2022/11/16 08:26:00;;;;;;;;;;;12.90;99.90;;;;;;5045795;28;20004;-81
2022/11/16 08:28:30;;;;;;;;;;;13.00;99.90;;;;;;5044930;28;20002;-81
2022/11/16 08:30:57;;;;;;;;;;;13.10;99.90;;;;;;5055589;28;20412;-81
2022/11/16 08:33:25;;;;;;;;;;;13.10;99.90;;;;;;5051045;28;19928;-81
2022/11/16 08:35:54;;;;;;;;;;;13.00;99.90;;;;;;5053669;28;19996;-84
2022/11/16 08:38:21;;;;;;;;;;;12.90;99.90;;;;;;5049202;28;20284;-79
2022/11/16 08:40:50;;;;;;;;;;;12.80;99.90;;;;;;5047920;28;19931;-80
2022/11/16 08:43:17;;;;;;;;;;;12.60;99.90;;;;;;5048929;28;19935;-79
2022/11/16 08:45:48;;;;;;;;;;;12.50;99.90;;;;;;5050729;28;19925;-79
2022/11/16 08:48:16;;;;;;;;;;;12.40;99.90;;;;;;5048217;28;19929;-79
2022/11/16 08:50:43;;;;;;;;;;;12.40;99.90;;;;;;5048618;28;20249;-79
2022/11/16 08:53:14;;;;;;;;;;;12.40;99.90;;;;;;5060137;28;20003;-80
2022/11/16 08:55:42;;;;;;;;;;;12.30;99.90;;;;;;5047081;28;19979;-80
2022/11/16 08:58:10;;;;;;;;;;;12.30;99.90;;;;;;5047378;28;19931;-78
2022/11/16 09:00:39;;;;;;;;;;;12.30;99.90;;;;;;5053366;28;19935;-79
2022/11/16 09:03:08;;;;;;;;;;;12.30;99.90;;;;;;5047818;28;20046;-78
2022/11/16 09:05:34;;;;;;;;;;;12.20;99.90;;;;;;5074576;28;20167;-78
2022/11/16 09:08:01;;;;;;;;;;;12.30;99.90;;;;;;5047821;28;19995;-79
2022/11/16 09:10:31;;;;;;;;;;;12.30;99.90;;;;;;5042399;28;19929;-78
2022/11/16 09:12:58;;;;;;;;;;;12.20;99.90;;;;;;5058671;28;19992;-79
2022/11/16 09:15:26;;;;;;;;;;;12.10;99.90;;;;;;5065879;28;19993;-78
2022/11/16 09:17:54;;;;;;;;;;;12.10;99.90;;;;;;5067756;28;20019;-78
2022/11/16 09:20:22;;;;;;;;;;;12.00;99.90;;;;;;5043396;28;19929;-79
2022/11/16 09:22:49;;;;;;;;;;;12.00;99.90;;;;;;5048810;28;19936;-77
2022/11/16 09:25:17;;;;;;;;;;;12.00;99.90;;;;;;5052399;28;19931;-80
2022/11/16 09:27:44;;;;;;;;;;;12.10;99.90;;;;;;5071336;28;20011;-79
2022/11/16 09:30:12;;;;;;;;;;;12.20;99.90;;;;;;5075201;28;19936;-78
2022/11/16 09:32:39;;;;;;;;;;;12.40;99.90;;;;;;5075178;28;19929;-78
2022/11/16 09:35:06;;;;;;;;;;;12.40;99.90;;;;;;5065051;28;19933;-83
2022/11/16 09:37:35;;;;;;;;;;;12.50;99.90;;;;;;5054954;28;20031;-83
2022/11/16 09:40:01;;;;;;;;;;;12.50;99.90;;;;;;5055677;28;19936;-83
2022/11/16 09:42:33;;;;;;;;;;;12.50;99.90;;;;;;5055499;28;19925;-83
2022/11/16 09:45:03;;;;;;;;;;;12.40;99.90;;;;;;5048323;28;19929;-78
2022/11/16 09:47:39;;;;;;;;;;;12.60;99.90;;;;;;5071802;28;19925;-78
2022/11/16 09:50:08;;;;;;;;;;;12.80;99.90;;;;;;5061672;28;19925;-78
2022/11/16 09:52:38;;;;;;;;;;;12.70;99.90;;;;;;5053474;28;19929;-79
2022/11/16 09:55:16;;;;;;;;;;;12.90;99.90;;;;;;5069877;28;19987;-77
2022/11/16 09:57:44;;;;;;;;;;;13.00;99.90;;;;;;5046212;28;19959;-77
2022/11/16 10:00:22;;;;;;;;;;;13.10;99.90;;;;;;5066244;28;19925;-77
2022/11/16 10:02:55;;;;;;;;;;;13.20;99.90;;;;;;5043771;28;20031;-78
2022/11/16 10:05:25;;;;;;;;;;;13.40;99.90;;;;;;5046621;28;19932;-77
2022/11/16 10:07:59;;;;;;;;;;;13.50;99.90;;;;;;5067297;28;19978;-78
2022/11/16 10:10:32;;;;;;;;;;;13.60;99.90;;;;;;5043562;28;19932;-77
2022/11/16 10:13:03;;;;;;;;;;;13.80;99.90;;;;;;5054125;28;19953;-78
2022/11/16 10:15:38;;;;;;;;;;;14.20;99.90;;;;;;5043623;28;19928;-78
2022/11/16 10:18:11;;;;;;;;;;;14.20;99.90;;;;;;5049699;28;19940;-77
2022/11/16 10:20:56;;;;;;;;;;;14.40;99.90;;;;;;5051150;28;19955;-77
2022/11/16 10:23:31;;;;;;;;;;;14.70;99.90;;;;;;5049982;28;20518;-78
2022/11/16 10:26:05;;;;;;;;;;;15.10;99.90;;;;;;5052149;28;19940;-78
2022/11/16 10:28:47;;;;;;;;;;;15.30;99.90;;;;;;5042482;28;19936;-78
2022/11/16 10:31:16;;;;;;;;;;;15.60;99.90;;;;;;5048763;28;19929;-76
2022/11/16 10:33:45;;;;;;;;;;;15.90;99.90;;;;;;5050928;28;19928;-78
2022/11/16 10:36:13;;;;;;;;;;;16.00;99.90;;;;;;5049776;28;19951;-76
2022/11/16 10:38:42;;;;;;;;;;;15.90;99.90;;;;;;5042770;28;19978;-75
2022/11/16 10:41:16;;;;;;;;;;;16.00;99.90;;;;;;5043411;28;20032;-76
2022/11/16 10:43:44;;;;;;;;;;;15.80;99.90;;;;;;5042501;28;20411;-78
2022/11/16 10:46:15;;;;;;;;;;;15.60;99.90;;;;;;5065233;28;20328;-78
2022/11/16 10:48:48;;;;;;;;;;;15.40;99.90;;;;;;5050839;28;19929;-77
2022/11/16 10:51:15;;;;;;;;;;;15.20;99.90;;;;;;5050635;28;19947;-78
2022/11/16 10:53:43;;;;;;;;;;;15.10;99.90;;;;;;5043469;28;19929;-78
2022/11/16 10:56:14;;;;;;;;;;;14.90;99.90;;;;;;5055367;28;20063;-76
2022/11/16 10:58:52;;;;;;;;;;;14.70;99.90;;;;;;5043977;28;19940;-76
2022/11/16 11:01:35;;;;;;;;;;;14.70;99.90;;;;;;5044591;28;19929;-78
2022/11/16 11:04:30;;;;;;;;;;;14.80;99.90;;;;;;5057672;28;19933;-78
2022/11/16 11:06:58;;;;;;;;;;;14.90;99.90;;;;;;5021548;28;19929;-76
2022/11/16 11:09:49;;;;;;;;;;;15.10;99.90;;;;;;5063707;28;19929;-76
2022/11/16 11:15:16;;;;;;;;;;;15.30;99.90;;;;;;5044706;28;20058;-80
2022/11/16 11:17:46;;;;;;;;;;;15.50;99.90;;;;;;5062614;28;20295;-79
2022/11/16 11:20:20;;;;;;;;;;;15.50;99.90;;;;;;5054009;28;19928;-80
2022/11/16 11:22:49;;;;;;;;;;;15.60;99.90;;;;;;5052901;28;19973;-80
2022/11/16 11:25:19;;;;;;;;;;;15.60;99.90;;;;;;5048201;28;19929;-79
2022/11/16 11:27:48;;;;;;;;;;;15.60;99.90;;;;;;5041365;28;20422;-79
2022/11/16 11:30:18;;;;;;;;;;;15.60;99.90;;;;;;5043802;28;19929;-79
2022/11/16 11:32:46;;;;;;;;;;;15.80;99.90;;;;;;5048270;28;19975;-78
2022/11/16 11:35:21;;;;;;;;;;;15.80;99.90;;;;;;5040378;28;19932;-78
2022/11/16 11:37:51;;;;;;;;;;;15.70;99.90;;;;;;5054008;28;19929;-77
2022/11/16 11:40:20;;;;;;;;;;;15.80;99.90;;;;;;5058173;28;19929;-77
2022/11/16 11:42:56;;;;;;;;;;;15.90;99.90;;;;;;5045953;28;19929;-77
2022/11/16 11:45:25;;;;;;;;;;;16.00;99.90;;;;;;5038630;28;19925;-77
2022/11/16 11:47:54;;;;;;;;;;;16.10;99.90;;;;;;5063352;28;19924;-77
2022/11/16 11:50:25;;;;;;;;;;;16.20;99.90;;;;;;5041667;28;19925;-77
2022/11/16 11:52:58;;;;;;;;;;;16.30;99.90;;;;;;5044258;28;19929;-78
2022/11/16 11:55:25;;;;;;;;;;;16.50;99.90;;;;;;5039331;28;19959;-78
2022/11/16 11:57:53;;;;;;;;;;;16.50;99.90;;;;;;5045480;28;19944;-76
2022/11/16 12:00:22;;;;;;;;;;;16.60;99.90;;;;;;5070996;28;20421;-78
2022/11/16 12:02:57;;;;;;;;;;;16.60;99.90;;;;;;5040909;28;19929;-77
2022/11/16 12:05:43;;;;;;;;;;;16.60;99.90;;;;;;5051254;28;19937;-77
2022/11/16 12:08:21;;;;;;;;;;;16.50;99.90;;;;;;5041925;28;19936;-77
2022/11/16 12:10:49;;;;;;;;;;;16.50;99.90;;;;;;5035493;28;19963;-77
2022/11/16 12:13:35;;;;;;;;;;;16.40;99.90;;;;;;5040303;28;20015;-77
2022/11/16 12:16:07;;;;;;;;;;;16.40;99.90;;;;;;5035816;28;19936;-76
2022/11/16 12:18:45;;;;;;;;;;;16.40;99.90;;;;;;5046106;28;19932;-76
2022/11/16 12:21:13;;;;;;;;;;;16.40;99.90;;;;;;5046174;28;20021;-76
2022/11/16 12:23:52;;;;;;;;;;;16.40;99.90;;;;;;5046069;28;19939;-76
2022/11/16 12:26:24;;;;;;;;;;;16.40;99.90;;;;;;5044958;28;19933;-76
2022/11/16 12:29:00;;;;;;;;;;;16.50;99.90;;;;;;5042368;28;19929;-76
2022/11/16 12:31:36;;;;;;;;;;;16.50;99.90;;;;;;5042222;28;19936;-76
2022/11/16 12:34:09;;;;;;;;;;;16.50;99.90;;;;;;5047646;28;20261;-76
2022/11/16 12:36:40;;;;;;;;;;;16.40;99.90;;;;;;5045164;28;19937;-76
2022/11/16 12:39:14;;;;;;;;;;;16.40;99.90;;;;;;5042071;28;20403;-77
2022/11/16 12:41:52;;;;;;;;;;;16.30;99.90;;;;;;5042673;28;19945;-77
2022/11/16 12:44:22;;;;;;;;;;;16.30;99.90;;;;;;5061222;28;20374;-77
2022/11/16 12:46:55;;;;;;;;;;;16.30;99.90;;;;;;5045114;28;19928;-77
2022/11/16 12:49:27;;;;;;;;;;;16.30;99.90;;;;;;5044305;28;19933;-77
2022/11/16 12:51:58;;;;;;;;;;;16.30;99.90;;;;;;5044303;28;19963;-78
2022/11/16 12:54:43;;;;;;;;;;;16.20;99.90;;;;;;5038782;28;19960;-77
2022/11/16 12:57:16;;;;;;;;;;;16.20;99.90;;;;;;5031456;28;19960;-77
2022/11/16 12:59:55;;;;;;;;;;;16.20;99.90;;;;;;5034853;28;19989;-78
2022/11/16 13:02:29;;;;;;;;;;;16.20;99.90;;;;;;5041801;28;19929;-81
2022/11/16 13:04:58;;;;;;;;;;;16.30;99.90;;;;;;5046523;28;19933;-81
2022/11/16 13:07:28;;;;;;;;;;;16.20;99.90;;;;;;5055925;28;19929;-80
2022/11/16 13:09:57;;;;;;;;;;;16.20;99.90;;;;;;5040804;28;20042;-80
2022/11/16 13:12:25;;;;;;;;;;;16.00;99.90;;;;;;5064381;28;19979;-79
2022/11/16 13:14:53;;;;;;;;;;;15.90;99.90;;;;;;5047578;28;20368;-81
2022/11/16 13:17:21;;;;;;;;;;;15.70;99.90;;;;;;5049360;28;19929;-81
2022/11/16 13:19:56;;;;;;;;;;;15.70;99.90;;;;;;5052304;28;19925;-81
2022/11/16 13:22:23;;;;;;;;;;;15.70;99.90;;;;;;5051419;28;19928;-80
2022/11/16 13:24:57;;;;;;;;;;;15.70;99.90;;;;;;5043982;28;20006;-81
2022/11/16 13:27:31;;;;;;;;;;;15.70;99.90;;;;;;5066298;28;19948;-82
2022/11/16 13:30:01;;;;;;;;;;;15.60;99.90;;;;;;5048988;28;19925;-81
2022/11/16 13:32:35;;;;;;;;;;;15.60;99.90;;;;;;5050314;28;19929;-81
2022/11/16 13:35:05;;;;;;;;;;;15.60;99.90;;;;;;5048134;28;19929;-81
2022/11/16 13:37:42;;;;;;;;;;;15.60;99.90;;;;;;5044873;28;20156;-80
2022/11/16 13:40:13;;;;;;;;;;;15.70;99.90;;;;;;5045500;28;19994;-79
2022/11/16 13:42:44;;;;;;;;;;;15.70;99.90;;;;;;5060289;28;19956;-82
2022/11/16 13:45:17;;;;;;;;;;;15.60;99.90;;;;;;5062299;28;19928;-77
2022/11/16 13:47:49;;;;;;;;;;;15.60;99.90;;;;;;5043075;28;20008;-81
2022/11/16 13:50:19;;;;;;;;;;;15.60;99.90;;;;;;5044149;28;20274;-78
2022/11/16 13:52:48;;;;;;;;;;;15.50;99.90;;;;;;5044205;28;20281;-79
2022/11/16 13:55:16;;;;;;;;;;;15.50;99.90;;;;;;5052345;28;19925;-78
2022/11/16 13:57:50;;;;;;;;;;;15.40;99.90;;;;;;5046341;28;19977;-78
2022/11/16 14:00:30;;;;;;;;;;;15.30;99.90;;;;;;5043910;28;19948;-79
2022/11/16 14:03:15;;;;;;;;;;;15.30;99.90;;;;;;5058893;28;19932;-80
2022/11/16 14:05:45;;;;;;;;;;;15.00;99.90;;;;;;5061615;28;19925;-78
2022/11/16 14:08:33;;;;;;;;;;;15.00;99.90;;;;;;5049562;28;20064;-79
2022/11/16 14:11:01;;;;;;;;;;;14.90;99.90;;;;;;5019610;28;19929;-79
2022/11/16 14:13:38;;;;;;;;;;;14.80;99.90;;;;;;5041100;28;19970;-79
2022/11/16 14:16:23;;;;;;;;;;;14.70;99.90;;;;;;5030896;28;19948;-79
2022/11/16 14:18:51;;;;;;;;;;;14.70;99.90;;;;;;5042663;28;19928;-80
2022/11/16 14:21:29;;;;;;;;;;;14.60;99.90;;;;;;5066116;28;19991;-79
2022/11/16 14:24:05;;;;;;;;;;;14.60;99.90;;;;;;5042952;28;19929;-79
2022/11/16 14:26:40;;;;;;;;;;;14.50;99.90;;;;;;5055541;28;20008;-80
2022/11/16 14:29:15;;;;;;;;;;;14.40;99.90;;;;;;5061872;28;19936;-77
2022/11/16 14:31:50;;;;;;;;;;;14.40;99.90;;;;;;5035873;28;19925;-78
2022/11/16 14:34:18;;;;;;;;;;;14.40;99.90;;;;;;5041037;28;19929;-79
2022/11/16 14:36:48;;;;;;;;;;;14.30;99.90;;;;;;5053890;28;19956;-80
2022/11/16 14:39:33;;;;;;;;;;;14.20;99.90;;;;;;5041723;28;20581;-80
2022/11/16 14:42:01;;;;;;;;;;;14.20;99.90;;;;;;5057994;28;19928;-79
2022/11/16 14:44:31;;;;;;;;;;;14.10;99.90;;;;;;5039242;28;19928;-80
2022/11/16 14:46:58;;;;;;;;;;;14.00;99.90;;;;;;5056658;28;19939;-79
2022/11/16 14:49:27;;;;;;;;;;;15.40;99.90;;;;;;5053442;28;20382;-79
2022/11/16 14:51:58;;;;;;;;;;;14.00;99.90;;;;;;5053857;28;19974;-79
2022/11/16 14:54:28;;;;;;;;;;;13.90;99.90;;;;;;5053616;28;19924;-81
2022/11/16 14:56:56;;;;;;;;;;;13.80;99.90;;;;;;5041618;28;19964;-81
2022/11/16 14:59:24;;;;;;;;;;;13.70;99.90;;;;;;5043517;28;20019;-80
2022/11/16 15:01:52;;;;;;;;;;;13.70;99.90;;;;;;5046184;28;19964;-80
2022/11/16 15:04:21;;;;;;;;;;;13.60;99.90;;;;;;5040693;28;19925;-79
2022/11/16 15:06:49;;;;;;;;;;;13.60;99.90;;;;;;5056199;28;20589;-79
2022/11/16 15:09:20;;;;;;;;;;;13.50;99.90;;;;;;5045914;28;20342;-79
2022/11/16 15:14:34;;;;;;;;;;;13.30;99.90;;;;;;5050372;28;19936;-79
2022/11/16 15:17:01;;;;;;;;;;;13.10;99.90;;;;;;5039590;28;20022;-79
2022/11/16 15:19:29;;;;;;;;;;;13.00;99.90;;;;;;5044042;28;19935;-80
2022/11/16 15:21:57;;;;;;;;;;;12.90;99.90;;;;;;5040256;28;19925;-80